createdAt,value
2022-10-30T00:00:06.870Z,85.70
2022-10-30T00:02:33.820Z,89.17
2022-10-30T00:05:00.644Z,82.86
2022-10-30T00:07:28.517Z,84.09
2022-10-30T00:09:55.258Z,82.99
2022-10-30T00:12:22.016Z,81.30
2022-10-30T00:14:51.471Z,81.16
2022-10-30T00:17:18.312Z,81.59
2022-10-30T00:19:45.267Z,82.12
2022-10-30T00:22:12.212Z,85.63
2022-10-30T00:24:38.951Z,84.60
2022-10-30T00:27:05.933Z,82.67
2022-10-30T00:29:32.800Z,82.87
2022-10-30T00:32:01.115Z,82.41
2022-10-30T00:34:28.702Z,83.78
2022-10-30T00:36:56.573Z,82.58
2022-10-30T00:39:23.476Z,82.43
2022-10-30T00:41:50.399Z,80.40
2022-10-30T00:44:36.297Z,79.90
2022-10-30T00:47:07.861Z,80.95
2022-10-30T00:49:37.498Z,77.06
2022-10-30T00:52:09.547Z,78.83
2022-10-30T00:54:37.411Z,79.24
2022-10-30T00:57:08.192Z,80.77
2022-10-30T00:59:36.733Z,80.27
2022-10-30T01:02:05.419Z,79.99
2022-10-30T01:04:37.686Z,80.81
2022-10-30T01:07:09.818Z,80.79
2022-10-30T01:09:37.596Z,81.19
2022-10-30T01:12:04.600Z,81.77
2022-10-30T01:14:34.254Z,82.24
2022-10-30T01:17:19.546Z,83.12
2022-10-30T01:19:54.816Z,83.04
2022-10-30T01:22:39.798Z,82.07
2022-10-30T01:25:21.001Z,82.76
2022-10-30T01:27:57.796Z,83.49
2022-10-30T01:30:41.723Z,82.73
2022-10-30T01:33:24.618Z,81.08
2022-10-30T01:36:00.087Z,77.54
2022-10-30T01:38:32.125Z,79.75
2022-10-30T01:40:58.988Z,79.18
2022-10-30T01:43:25.717Z,78.47
2022-10-30T01:46:09.866Z,78.98
2022-10-30T01:48:55.765Z,80.38
2022-10-30T01:51:38.890Z,82.31
2022-10-30T01:54:15.092Z,82.77
2022-10-30T01:56:51.701Z,82.12
2022-10-30T01:59:26.064Z,83.26
2022-10-30T02:01:53.188Z,82.14
2022-10-30T02:04:21.899Z,84.40
2022-10-30T02:06:49.493Z,86.36
2022-10-30T02:09:16.987Z,80.55
2022-10-30T02:11:45.435Z,83.62
2022-10-30T02:14:14.455Z,83.03
2022-10-30T02:16:46.004Z,81.55
2022-10-30T02:19:12.889Z,79.73
2022-10-30T02:21:41.217Z,79.10
2022-10-30T02:24:08.035Z,80.95
2022-10-30T02:26:35.016Z,78.89
2022-10-30T02:29:01.897Z,78.67
2022-10-30T02:31:28.685Z,80.05
2022-10-30T02:33:55.476Z,79.94
2022-10-30T02:36:23.404Z,78.66
2022-10-30T02:38:51.606Z,80.21
2022-10-30T02:41:18.588Z,80.15
2022-10-30T02:43:45.336Z,80.30
2022-10-30T02:46:12.077Z,81.20
2022-10-30T02:48:41.289Z,82.51
2022-10-30T02:51:08.062Z,83.00
2022-10-30T02:53:35.021Z,82.79
2022-10-30T02:56:05.704Z,83.52
2022-10-30T02:58:32.504Z,83.11
2022-10-30T03:01:05.547Z,83.51
2022-10-30T03:03:32.423Z,83.26
2022-10-30T03:06:00.732Z,83.09
2022-10-30T03:08:27.551Z,83.69
2022-10-30T03:11:00.103Z,82.72
2022-10-30T03:13:29.261Z,82.16
2022-10-30T03:16:00.591Z,81.29
2022-10-30T03:18:27.987Z,81.98
2022-10-30T03:20:59.417Z,83.94
2022-10-30T03:23:26.604Z,83.52
2022-10-30T03:25:54.234Z,83.48
2022-10-30T03:28:21.566Z,83.22
2022-10-30T03:30:51.049Z,82.64
2022-10-30T03:33:18.438Z,83.09
2022-10-30T03:35:45.352Z,81.28
2022-10-30T03:38:12.543Z,80.62
2022-10-30T03:40:39.420Z,82.98
2022-10-30T03:43:07.010Z,82.50
2022-10-30T03:45:34.858Z,82.43
2022-10-30T03:48:04.984Z,80.82
2022-10-30T03:50:32.188Z,82.81
2022-10-30T03:52:59.799Z,80.01
2022-10-30T03:55:26.554Z,79.87
2022-10-30T03:57:56.998Z,80.51
2022-10-30T04:00:23.990Z,79.52
2022-10-30T04:02:52.813Z,80.68
2022-10-30T04:05:23.185Z,79.55
2022-10-30T04:07:57.136Z,80.29
2022-10-30T04:10:24.232Z,80.47
2022-10-30T04:12:51.216Z,79.37
2022-10-30T04:15:18.469Z,79.73
2022-10-30T04:17:49.162Z,79.61
2022-10-30T04:20:16.065Z,78.72
2022-10-30T04:22:45.445Z,81.24
2022-10-30T04:25:12.343Z,81.04
2022-10-30T04:27:43.324Z,81.62
2022-10-30T04:30:12.276Z,80.10
2022-10-30T04:32:46.423Z,80.97
2022-10-30T04:35:14.410Z,82.41
2022-10-30T04:37:41.604Z,83.08
2022-10-30T04:40:10.987Z,82.04
2022-10-30T04:42:37.719Z,81.48
2022-10-30T04:45:11.140Z,82.18
2022-10-30T04:47:40.992Z,85.64
2022-10-30T04:50:08.433Z,85.59
2022-10-30T04:52:36.618Z,81.42
2022-10-30T04:55:03.468Z,81.51
2022-10-30T04:57:32.763Z,81.11
2022-10-30T04:59:59.518Z,79.20
2022-10-30T05:02:26.700Z,78.46
2022-10-30T05:04:53.609Z,80.53
2022-10-30T05:07:20.835Z,82.30
2022-10-30T05:09:47.854Z,82.23
2022-10-30T05:12:14.826Z,82.55
2022-10-30T05:14:42.933Z,80.98
2022-10-30T05:17:10.247Z,78.96
2022-10-30T05:19:37.032Z,80.75
2022-10-30T05:22:04.385Z,83.28
2022-10-30T05:24:31.241Z,83.24
2022-10-30T05:26:59.568Z,83.87
2022-10-30T05:29:26.411Z,82.85
2022-10-30T05:31:54.625Z,83.52
2022-10-30T05:34:25.569Z,84.64
2022-10-30T05:36:52.616Z,84.37
2022-10-30T05:39:20.197Z,84.07
2022-10-30T05:41:47.150Z,82.36
2022-10-30T05:44:18.119Z,81.51
2022-10-30T05:46:56.999Z,78.31
2022-10-30T05:49:24.375Z,79.05
2022-10-30T05:51:51.248Z,80.39
2022-10-30T05:54:20.218Z,80.15
2022-10-30T05:56:47.816Z,80.34
2022-10-30T05:59:18.252Z,81.88
2022-10-30T06:01:46.028Z,82.20
2022-10-30T06:04:18.216Z,82.42
2022-10-30T06:06:45.122Z,82.73
2022-10-30T06:09:12.020Z,82.50
2022-10-30T06:11:39.352Z,82.63
2022-10-30T06:14:07.326Z,83.27
2022-10-30T06:16:35.656Z,82.68
2022-10-30T06:19:02.559Z,84.10
2022-10-30T06:21:32.663Z,82.92
2022-10-30T06:24:01.490Z,82.70
2022-10-30T06:26:30.076Z,83.07
2022-10-30T06:28:58.073Z,83.06
2022-10-30T06:31:25.266Z,83.47
2022-10-30T06:33:55.731Z,83.82
2022-10-30T06:36:27.166Z,83.56
2022-10-30T06:38:55.430Z,81.57
2022-10-30T06:41:29.075Z,82.12
2022-10-30T06:43:57.460Z,82.95
2022-10-30T06:46:27.479Z,78.96
2022-10-30T06:48:57.669Z,81.76
2022-10-30T06:51:24.776Z,83.90
2022-10-30T06:53:52.601Z,81.90
2022-10-30T06:56:21.795Z,83.18
2022-10-30T06:58:48.876Z,82.17
2022-10-30T07:01:16.232Z,84.69
2022-10-30T07:03:43.085Z,83.59
2022-10-30T07:06:11.482Z,86.20
2022-10-30T07:08:38.493Z,85.26
2022-10-30T07:11:05.807Z,86.18
2022-10-30T07:13:34.127Z,88.39
2022-10-30T07:16:00.898Z,87.59
2022-10-30T07:18:27.868Z,86.67
2022-10-30T07:20:57.778Z,85.29
2022-10-30T07:23:25.158Z,85.06
2022-10-30T07:25:51.914Z,86.22
2022-10-30T07:28:19.937Z,84.71
2022-10-30T07:30:48.060Z,84.14
2022-10-30T07:33:14.899Z,79.97
2022-10-30T07:35:41.629Z,75.94
2022-10-30T07:38:11.328Z,74.77
2022-10-30T07:40:39.185Z,75.96
2022-10-30T07:43:06.200Z,75.44
2022-10-30T07:45:33.369Z,74.61
2022-10-30T07:48:02.145Z,77.60
2022-10-30T07:50:29.328Z,75.49
2022-10-30T07:52:56.408Z,72.92
2022-10-30T07:55:23.439Z,73.09
2022-10-30T07:57:50.210Z,71.61
2022-10-30T08:00:17.989Z,68.77
2022-10-30T08:02:48.740Z,65.57
2022-10-30T08:05:17.875Z,66.46
2022-10-30T08:07:47.159Z,66.53
2022-10-30T08:10:14.675Z,63.22
2022-10-30T08:12:41.722Z,62.72
2022-10-30T08:15:10.570Z,65.99
2022-10-30T08:17:41.927Z,65.23
2022-10-30T08:20:10.160Z,64.97
2022-10-30T08:22:46.084Z,63.29
2022-10-30T08:25:14.281Z,64.16
2022-10-30T08:27:50.299Z,64.41
2022-10-30T08:30:18.645Z,62.61
2022-10-30T08:32:45.382Z,63.07
2022-10-30T08:35:15.764Z,59.83
2022-10-30T08:37:47.993Z,57.85
2022-10-30T08:40:15.218Z,56.60
2022-10-30T08:42:44.163Z,57.48
2022-10-30T08:45:12.174Z,60.48
2022-10-30T08:47:40.168Z,59.85
2022-10-30T08:50:08.361Z,59.13
2022-10-30T08:52:35.251Z,58.69
2022-10-30T08:55:08.082Z,57.92
2022-10-30T08:57:36.311Z,58.13
2022-10-30T09:00:03.890Z,56.88
2022-10-30T09:02:32.167Z,56.16
2022-10-30T09:04:59.397Z,56.84
2022-10-30T09:07:27.974Z,56.98
2022-10-30T09:09:57.755Z,57.05
2022-10-30T09:12:26.661Z,56.81
2022-10-30T09:14:55.047Z,56.73
2022-10-30T09:17:22.257Z,56.33
2022-10-30T09:19:49.314Z,55.86
2022-10-30T09:22:16.192Z,54.98
2022-10-30T09:24:43.254Z,55.53
2022-10-30T09:27:10.172Z,55.08
2022-10-30T09:29:39.217Z,56.71
2022-10-30T09:32:06.637Z,56.05
2022-10-30T09:34:33.865Z,56.10
2022-10-30T09:37:00.987Z,55.60
2022-10-30T09:39:28.927Z,54.41
2022-10-30T09:42:22.043Z,54.91
2022-10-30T09:45:23.683Z,56.49
2022-10-30T09:48:01.215Z,55.84
2022-10-30T09:50:32.229Z,54.80
2022-10-30T09:53:14.420Z,55.56
2022-10-30T09:55:47.193Z,56.35
2022-10-30T09:58:28.210Z,55.99
2022-10-30T10:01:09.170Z,55.52
2022-10-30T10:06:21.002Z,54.33
2022-10-30T10:08:54.723Z,54.17
2022-10-30T10:11:26.328Z,54.76
2022-10-30T10:13:59.052Z,54.36
2022-10-30T10:16:30.299Z,55.37
2022-10-30T10:19:06.104Z,54.65
2022-10-30T10:21:39.605Z,55.37
2022-10-30T10:24:19.737Z,55.92
2022-10-30T10:26:54.672Z,56.92
2022-10-30T10:29:39.436Z,54.40
2022-10-30T10:32:49.416Z,56.69
2022-10-30T10:35:40.110Z,56.77
2022-10-30T10:38:17.157Z,55.75
2022-10-30T10:40:54.546Z,54.60
2022-10-30T10:43:35.994Z,55.35
2022-10-30T10:46:23.473Z,56.57
2022-10-30T10:49:03.779Z,56.34
2022-10-30T10:51:36.875Z,56.11
2022-10-30T10:54:10.746Z,56.77
2022-10-30T10:56:42.824Z,56.19
2022-10-30T10:59:17.251Z,55.78
2022-10-30T11:01:54.113Z,56.61
2022-10-30T11:04:31.564Z,56.92
2022-10-30T11:07:10.506Z,56.99
2022-10-30T11:09:39.744Z,55.10
2022-10-30T11:12:07.183Z,56.02
2022-10-30T11:14:34.185Z,56.58
2022-10-30T11:17:12.004Z,55.91
2022-10-30T11:19:39.095Z,55.34
2022-10-30T11:22:17.250Z,55.68
2022-10-30T11:24:44.321Z,56.15
2022-10-30T11:27:26.266Z,55.64
2022-10-30T11:29:56.355Z,55.91
2022-10-30T11:32:28.744Z,55.79
2022-10-30T11:35:03.688Z,55.60
2022-10-30T11:37:33.814Z,54.88
2022-10-30T11:40:06.803Z,54.94
2022-10-30T11:42:35.151Z,56.14
2022-10-30T11:45:03.205Z,54.97
2022-10-30T11:50:17.926Z,54.96
2022-10-30T11:52:49.249Z,54.99
2022-10-30T11:55:19.702Z,55.00
2022-10-30T11:57:50.103Z,55.23
2022-10-30T12:00:21.286Z,54.49
2022-10-30T12:02:53.082Z,55.33
2022-10-30T12:05:35.973Z,55.52
2022-10-30T12:08:24.210Z,54.61
2022-10-30T12:11:00.863Z,55.18
2022-10-30T12:13:33.425Z,55.39
2022-10-30T12:16:07.383Z,55.90
2022-10-30T12:18:36.642Z,55.47
2022-10-30T12:21:04.232Z,55.84
2022-10-30T12:23:35.164Z,55.50
2022-10-30T12:26:09.714Z,54.70
2022-10-30T12:28:37.322Z,54.18
2022-10-30T12:31:12.982Z,53.79
2022-10-30T12:33:45.481Z,52.85
2022-10-30T12:36:16.749Z,54.16
2022-10-30T12:38:52.071Z,53.94
2022-10-30T12:41:23.441Z,54.98
2022-10-30T12:43:57.898Z,54.40
2022-10-30T12:46:36.668Z,54.30
2022-10-30T12:49:13.068Z,54.38
2022-10-30T12:51:49.715Z,54.61
2022-10-30T12:54:32.383Z,53.91
2022-10-30T12:57:07.685Z,53.69
2022-10-30T12:59:42.778Z,53.12
2022-10-30T13:02:20.220Z,52.79
2022-10-30T13:04:58.559Z,51.66
2022-10-30T13:07:31.732Z,51.89
2022-10-30T13:10:19.148Z,51.43
2022-10-30T13:12:51.186Z,52.54
2022-10-30T13:15:25.011Z,51.75
2022-10-30T13:17:52.544Z,52.95
2022-10-30T13:20:20.814Z,54.10
2022-10-30T13:22:53.909Z,54.22
2022-10-30T13:25:31.071Z,55.94
2022-10-30T13:28:07.529Z,56.26
2022-10-30T13:30:40.398Z,56.41
2022-10-30T13:33:13.486Z,57.16
2022-10-30T13:35:47.410Z,57.55
2022-10-30T13:38:33.275Z,57.85
2022-10-30T13:41:21.072Z,58.10
2022-10-30T13:43:56.287Z,58.13
2022-10-30T13:46:59.539Z,57.74
2022-10-30T13:49:43.807Z,58.86
2022-10-30T13:52:16.240Z,58.58
2022-10-30T13:54:57.041Z,58.99
2022-10-30T13:57:35.395Z,58.72
2022-10-30T14:00:08.024Z,59.19
2022-10-30T14:03:13.656Z,60.02
2022-10-30T14:05:46.772Z,60.84
2022-10-30T14:08:24.966Z,60.08
2022-10-30T14:10:57.537Z,61.62
2022-10-30T14:13:51.681Z,61.20
2022-10-30T14:16:39.936Z,60.96
2022-10-30T14:19:08.798Z,60.10
2022-10-30T14:21:43.638Z,60.90
2022-10-30T14:24:21.485Z,61.71
2022-10-30T14:26:53.524Z,61.94
2022-10-30T14:29:38.789Z,61.86
2022-10-30T14:32:47.749Z,62.26
2022-10-30T14:35:29.709Z,62.18
2022-10-30T14:37:57.207Z,63.92
2022-10-30T14:40:37.310Z,64.26
2022-10-30T14:43:10.067Z,63.69
2022-10-30T14:45:45.055Z,65.40
2022-10-30T14:48:19.407Z,65.75
2022-10-30T14:51:01.021Z,66.06
2022-10-30T14:53:42.183Z,66.09
2022-10-30T14:56:24.817Z,65.99
2022-10-30T14:59:21.736Z,67.22
2022-10-30T15:02:02.060Z,67.34
2022-10-30T15:04:41.491Z,67.54
2022-10-30T15:07:20.602Z,67.97
2022-10-30T15:10:02.437Z,69.01
2022-10-30T15:12:55.826Z,69.55
2022-10-30T15:15:25.640Z,71.64
2022-10-30T15:18:07.541Z,72.31
2022-10-30T15:20:38.786Z,74.21
2022-10-30T15:23:14.359Z,76.88
2022-10-30T15:25:47.441Z,78.27
2022-10-30T15:28:20.462Z,78.37
2022-10-30T15:31:04.877Z,78.29
2022-10-30T15:33:35.290Z,80.25
2022-10-30T15:36:02.101Z,83.64
2022-10-30T15:38:34.005Z,83.96
2022-10-30T15:41:04.513Z,83.05
2022-10-30T15:43:36.115Z,80.49
2022-10-30T15:46:09.401Z,81.79
2022-10-30T15:48:45.495Z,80.99
2022-10-30T15:51:16.860Z,80.23
2022-10-30T15:53:47.282Z,80.27
2022-10-30T15:56:20.156Z,77.48
2022-10-30T15:58:50.290Z,77.85
2022-10-30T16:01:25.431Z,77.69
2022-10-30T16:03:58.002Z,76.89
2022-10-30T16:06:27.590Z,77.45
2022-10-30T16:08:54.741Z,78.52
2022-10-30T16:11:23.193Z,78.80
2022-10-30T16:13:50.924Z,77.46
2022-10-30T16:16:22.635Z,76.43
2022-10-30T16:18:49.672Z,78.37
2022-10-30T16:21:22.673Z,76.94
2022-10-30T16:23:52.401Z,77.37
2022-10-30T16:26:26.729Z,76.52
2022-10-30T16:28:53.862Z,75.39
2022-10-30T16:31:21.342Z,75.22
2022-10-30T16:33:49.371Z,74.83
2022-10-30T16:36:19.496Z,76.16
2022-10-30T16:38:48.686Z,75.74
2022-10-30T16:41:22.717Z,76.29
2022-10-30T16:44:16.053Z,75.63
2022-10-30T16:46:50.502Z,75.04
2022-10-30T16:49:20.309Z,75.23
2022-10-30T16:51:58.328Z,76.59
2022-10-30T16:54:29.897Z,75.35
2022-10-30T16:56:58.902Z,75.84
2022-10-30T16:59:30.757Z,75.90
2022-10-30T17:01:59.790Z,76.86
2022-10-30T17:04:28.642Z,75.15
2022-10-30T17:07:06.685Z,75.52
2022-10-30T17:09:36.782Z,78.19
2022-10-30T17:12:22.160Z,75.77
2022-10-30T17:14:55.196Z,76.65
2022-10-30T17:17:27.413Z,76.23
2022-10-30T17:19:57.029Z,76.44
2022-10-30T17:22:26.756Z,76.89
2022-10-30T17:24:54.210Z,75.65
2022-10-30T17:27:46.845Z,78.04
2022-10-30T17:30:35.865Z,74.49
2022-10-30T17:33:23.210Z,75.21
2022-10-30T17:35:50.444Z,75.66
2022-10-30T17:38:19.254Z,75.76
2022-10-30T17:40:46.719Z,76.97
2022-10-30T17:43:14.223Z,76.84
2022-10-30T17:45:41.520Z,75.48
2022-10-30T17:48:14.632Z,74.60
2022-10-30T17:50:41.746Z,74.25
2022-10-30T17:53:16.507Z,75.47
2022-10-30T17:55:49.477Z,77.18
2022-10-30T17:58:21.679Z,76.21
2022-10-30T18:00:48.589Z,74.57
2022-10-30T18:03:15.585Z,76.93
2022-10-30T18:05:43.735Z,73.86
2022-10-30T18:08:12.987Z,74.65
2022-10-30T18:10:39.758Z,77.20
2022-10-30T18:13:09.915Z,79.75
2022-10-30T18:15:40.553Z,79.23
2022-10-30T18:18:09.702Z,77.70
2022-10-30T18:20:37.753Z,74.84
2022-10-30T18:23:04.978Z,73.49
2022-10-30T18:25:35.719Z,73.33
2022-10-30T18:28:03.212Z,74.06
2022-10-30T18:30:31.788Z,72.37
2022-10-30T18:32:59.112Z,71.78
2022-10-30T18:35:29.390Z,72.34
2022-10-30T18:37:57.090Z,73.78
2022-10-30T18:40:24.183Z,74.95
2022-10-30T18:42:51.075Z,76.67
2022-10-30T18:45:22.993Z,77.82
2022-10-30T18:47:52.067Z,77.30
2022-10-30T18:50:21.366Z,75.79
2022-10-30T18:52:48.155Z,77.56
2022-10-30T18:55:21.072Z,78.11
2022-10-30T18:57:51.286Z,79.04
2022-10-30T19:00:23.626Z,78.31
2022-10-30T19:02:52.596Z,78.50
2022-10-30T19:05:30.929Z,77.17
2022-10-30T19:08:00.804Z,79.10
2022-10-30T19:10:29.979Z,78.92
2022-10-30T19:13:11.765Z,78.53
2022-10-30T19:15:41.136Z,78.50
2022-10-30T19:18:10.024Z,79.81
2022-10-30T19:20:58.880Z,74.15
2022-10-30T19:23:25.441Z,76.60
2022-10-30T19:25:52.567Z,75.23
2022-10-30T19:28:22.096Z,75.09
2022-10-30T19:30:49.931Z,76.52
2022-10-30T19:33:21.117Z,77.23
2022-10-30T19:35:53.533Z,78.08
2022-10-30T19:38:20.513Z,78.88
2022-10-30T19:40:48.773Z,77.53
2022-10-30T19:43:15.636Z,78.32
2022-10-30T19:45:42.467Z,77.29
2022-10-30T19:48:14.466Z,77.42
2022-10-30T19:50:45.235Z,78.41
2022-10-30T19:53:13.238Z,79.08
2022-10-30T19:55:41.620Z,79.18
2022-10-30T19:58:15.930Z,76.50
2022-10-30T20:00:43.218Z,77.32
2022-10-30T20:03:14.958Z,76.62
2022-10-30T20:05:45.033Z,78.54
2022-10-30T20:08:14.391Z,76.20
2022-10-30T20:10:42.721Z,77.46
2022-10-30T20:13:10.710Z,76.46
2022-10-30T20:15:38.563Z,76.15
2022-10-30T20:18:13.331Z,76.87
2022-10-30T20:20:45.049Z,76.07
2022-10-30T20:23:13.245Z,76.24
2022-10-30T20:25:40.774Z,76.82
2022-10-30T20:28:18.465Z,76.03
2022-10-30T20:30:46.560Z,75.94
2022-10-30T20:33:13.790Z,77.92
2022-10-30T20:35:41.869Z,77.13
2022-10-30T20:38:19.980Z,78.35
2022-10-30T20:40:48.447Z,78.61
2022-10-30T20:43:17.929Z,78.80
2022-10-30T20:45:46.134Z,76.20
2022-10-30T20:48:13.793Z,76.97
2022-10-30T20:50:44.556Z,76.20
2022-10-30T20:53:17.274Z,74.83
2022-10-30T20:55:44.554Z,78.74
2022-10-30T20:58:11.739Z,78.97
2022-10-30T21:00:39.806Z,77.23
2022-10-30T21:03:07.727Z,73.96
2022-10-30T21:05:43.931Z,75.13
2022-10-30T21:08:11.763Z,76.09
2022-10-30T21:10:40.372Z,78.34
2022-10-30T21:13:10.247Z,78.83
2022-10-30T21:15:38.883Z,77.10
2022-10-30T21:18:06.281Z,78.20
2022-10-30T21:20:33.077Z,76.59
2022-10-30T21:23:01.101Z,75.21
2022-10-30T21:25:27.861Z,75.77
2022-10-30T21:27:57.855Z,74.28
2022-10-30T21:30:24.630Z,76.08
2022-10-30T21:32:52.907Z,75.53
2022-10-30T21:35:19.858Z,75.16
2022-10-30T21:37:48.015Z,75.67
2022-10-30T21:40:15.017Z,76.46
2022-10-30T21:42:41.833Z,78.73
2022-10-30T21:45:10.647Z,78.78
2022-10-30T21:47:37.408Z,76.80
2022-10-30T21:50:07.632Z,78.32
2022-10-30T21:52:37.784Z,77.64
2022-10-30T21:55:05.384Z,78.11
2022-10-30T21:57:32.124Z,77.65
2022-10-30T22:00:01.802Z,78.50
2022-10-30T22:02:34.292Z,80.34
2022-10-30T22:05:01.365Z,78.59
2022-10-30T22:07:28.145Z,75.04
2022-10-30T22:09:56.125Z,75.36
2022-10-30T22:12:23.265Z,75.30
2022-10-30T22:14:52.273Z,72.95
2022-10-30T22:17:19.004Z,78.12
2022-10-30T22:19:47.487Z,76.03
2022-10-30T22:22:14.209Z,77.11
2022-10-30T22:24:41.065Z,78.28
2022-10-30T22:27:09.066Z,77.37
2022-10-30T22:29:35.836Z,76.05
2022-10-30T22:32:04.080Z,76.01
2022-10-30T22:34:30.804Z,75.21
2022-10-30T22:36:59.122Z,75.92
2022-10-30T22:39:25.929Z,78.55
2022-10-30T22:41:54.836Z,78.31
2022-10-30T22:44:21.641Z,77.54
2022-10-30T22:46:48.815Z,77.10
2022-10-30T22:49:15.535Z,76.91
2022-10-30T22:51:42.829Z,78.66
2022-10-30T22:54:12.103Z,79.55
2022-10-30T22:56:41.205Z,78.77
2022-10-30T22:59:10.586Z,78.04
2022-10-30T23:01:38.925Z,76.99
2022-10-30T23:04:07.661Z,75.80
2022-10-30T23:06:35.561Z,76.38
2022-10-30T23:09:07.922Z,74.93
2022-10-30T23:11:36.349Z,76.99
2022-10-30T23:14:04.662Z,76.33
2022-10-30T23:16:31.830Z,77.63
2022-10-30T23:18:59.995Z,78.60
2022-10-30T23:21:29.217Z,77.86
2022-10-30T23:23:56.660Z,77.96
2022-10-30T23:26:25.325Z,77.65
2022-10-30T23:28:56.961Z,77.84
2022-10-30T23:31:26.758Z,80.37
2022-10-30T23:33:55.879Z,78.94
2022-10-30T23:36:24.458Z,80.04
2022-10-30T23:38:52.717Z,80.61
2022-10-30T23:41:19.824Z,79.09
2022-10-30T23:43:48.454Z,77.11
2022-10-30T23:46:16.685Z,76.96
2022-10-30T23:48:43.486Z,76.11
2022-10-30T23:51:10.306Z,77.18
2022-10-30T23:53:37.876Z,77.03
2022-10-30T23:56:05.827Z,76.70
2022-10-30T23:58:34.427Z,77.80
